Time;durP1;ratioP1;P1;durP2;ratioP2;P2;SDS_P1;SDS_P2;PMS_P1;PMS_P2;Temp;Humidity;BMP_temperature;BMP_pressure;BME280_temperature;BME280_humidity;BME280_pressure;Samples;Min_cycle;Max_cycle;Signal;HPM_P1;HPM_P2
2022/02/07 00:52:07;;;;;;;;;2.00;1.00;;;;;9.74;60.52;101534.44;6216656;22;45466;-86
2022/02/07 00:54:32;;;;;;;;;3.50;1.00;;;;;9.55;60.05;101526.31;6215410;22;45280;-86
2022/02/07 00:57:49;;;;;;;;;3.00;2.00;;;;;9.68;59.95;101569.44;6215820;22;45296;-84
2022/02/07 08:41:51;;;;;;;;;7.50;6.75;;;;;7.24;60.96;102479.00;6272708;22;46255;-87
2022/02/07 09:19:14;;;;;;;;;7.00;4.00;;;;;7.63;61.68;102558.25;6213466;22;45475;-89
2022/02/07 09:22:24;;;;;;;;;8.00;6.75;;;;;7.66;61.39;102554.84;6212677;22;44857;-85
2022/02/07 09:28:36;;;;;;;;;5.00;4.00;;;;;8.03;61.45;102611.28;6212876;22;45391;-84
2022/02/07 09:38:28;;;;;;;;;;;;;;;;;;;;;
2022/02/07 09:40:54;;;;;;;;;6.25;4.25;;;;;8.01;61.27;102605.06;6211125;22;73191;-81
2022/02/07 09:43:30;;;;;;;;;7.25;5.25;;;;;8.29;61.10;102656.84;6237438;22;47272;-81
2022/02/07 09:46:05;;;;;;;;;4.00;4.00;;;;;8.22;61.06;102650.47;6279997;22;45195;-81
2022/02/07 09:48:32;;;;;;;;;8.00;6.00;;;;;8.36;61.11;102674.56;6308549;22;45113;-82
2022/02/07 09:50:58;;;;;;;;;9.50;7.00;;;;;8.32;60.97;102647.34;6309187;22;45176;-82
2022/02/07 09:54:09;;;;;;;;;5.00;2.50;;;;;8.47;60.86;102672.38;6281398;22;46811;-85
2022/02/07 10:03:46;;;;;;;;;;;;;;;;;;;;;
2022/02/07 10:13:23;;;;;;;;;7.00;4.25;;;;;8.96;59.87;102684.63;6288806;22;45859;-78
2022/02/07 10:15:53;;;;;;;;;5.00;4.00;;;;;9.16;59.62;102720.31;6310545;22;45382;-80
2022/02/07 10:18:54;;;;;;;;;5.50;4.25;;;;;9.23;59.51;102714.44;6339008;22;45452;-80
2022/02/07 11:03:44;;;;;;;;;3.25;1.00;;;;;10.88;54.69;102703.59;6065213;23;45375;-89
2022/02/07 11:06:16;;;;;;;;;5.50;2.00;;;;;11.04;54.42;102711.09;6063636;23;45348;-92
2022/02/07 11:43:42;;;;;;;;;2.33;2.00;;;;;12.81;49.67;102718.63;6295654;22;45326;-87
2022/02/07 11:46:13;;;;;;;;;4.00;1.00;;;;;13.00;49.44;102725.13;6279933;22;46843;-86
2022/02/07 11:48:41;;;;;;;;;4.67;3.00;;;;;13.16;49.04;102731.59;6310002;22;45258;-88
2022/02/07 11:51:39;;;;;;;;;3.33;2.00;;;;;13.33;48.41;102716.03;6322172;22;45179;-88
2022/02/07 11:54:07;;;;;;;;;5.33;5.00;;;;;13.46;48.79;102728.59;6262885;22;45341;-86
2022/02/07 12:02:03;;;;;;;;;3.00;3.00;;;;;13.89;47.63;102740.72;6310658;22;45211;-89
2022/02/07 12:04:34;;;;;;;;;4.00;4.00;;;;;14.06;47.46;102725.09;6309330;22;45249;-89
2022/02/07 12:07:19;;;;;;;;;3.00;3.00;;;;;14.21;46.98;102721.75;6281810;22;47152;-88
2022/02/07 12:12:29;;;;;;;;;4.00;1.00;;;;;14.31;45.84;102717.47;6306642;22;45979;-89
2022/02/07 12:15:22;;;;;;;;;5.00;3.33;;;;;14.31;45.81;102715.72;6280626;22;45341;-89
2022/02/07 12:18:14;;;;;;;;;5.33;4.00;;;;;14.40;45.66;102706.09;6273742;22;47729;-87
2022/02/07 12:20:43;;;;;;;;;6.00;4.67;;;;;14.50;46.22;102700.03;6284936;22;45227;-88
2022/02/07 12:23:17;;;;;;;;;4.33;3.00;;;;;14.68;45.27;102718.84;6309003;22;45483;-87
2022/02/07 12:25:51;;;;;;;;;4.00;2.00;;;;;14.78;44.96;102710.09;6280193;22;45484;-87
2022/02/07 12:28:41;;;;;;;;;6.00;4.33;;;;;15.04;44.93;102719.19;6307496;22;45269;-87
2022/02/07 12:33:42;;;;;;;;;1.33;1.33;;;;;15.41;42.79;102709.78;6309210;22;45314;-90
2022/02/07 12:36:08;;;;;;;;;4.00;1.67;;;;;15.61;42.67;102709.91;6281700;22;45812;-84
2022/02/07 12:38:37;;;;;;;;;4.00;2.00;;;;;15.70;42.90;102694.09;6310984;22;46283;-89
2022/02/07 12:41:05;;;;;;;;;2.00;1.00;;;;;15.63;41.24;102700.19;6282895;22;45556;-87
2022/02/07 12:43:38;;;;;;;;;2.67;2.00;;;;;15.69;41.47;102705.63;6281283;22;45367;-89
2022/02/07 12:46:06;;;;;;;;;1.33;1.33;;;;;15.70;41.06;102711.81;6280187;22;45378;-89
2022/02/07 12:48:34;;;;;;;;;3.67;2.67;;;;;15.75;42.14;102713.63;6279796;22;48011;-89
2022/02/07 12:51:02;;;;;;;;;5.33;3.00;;;;;15.97;41.65;102714.63;6308560;22;45283;-89
2022/02/07 12:53:29;;;;;;;;;5.00;3.00;;;;;16.25;41.49;102715.66;6308872;22;45309;-89
2022/02/07 12:56:07;;;;;;;;;2.00;2.00;;;;;16.38;40.23;102710.38;6280925;22;45504;-88
2022/02/07 12:58:42;;;;;;;;;5.67;4.00;;;;;16.67;40.75;102706.03;6308137;22;45309;-88
2022/02/07 13:01:23;;;;;;;;;5.33;4.00;;;;;16.83;38.81;102708.78;6281878;22;45466;-92
2022/02/07 13:07:20;;;;;;;;;;;;;;;;;;;;;
2022/02/07 13:10:10;;;;;;;;;7.00;5.33;;;;;16.68;39.21;102712.25;6315782;22;74339;-85
2022/02/07 13:13:06;;;;;;;;;1.00;1.00;;;;;16.73;38.37;102710.47;6306654;22;45464;-84
2022/02/07 13:15:35;;;;;;;;;4.00;4.00;;;;;17.03;39.20;102715.03;6279713;22;45439;-82
2022/02/07 15:03:28;;;;;;;;;3.00;1.67;;;;;22.60;29.02;102716.44;6361234;22;45393;-87
2022/02/07 15:23:17;;;;;;;;;3.00;3.00;;;;;22.23;28.11;102731.53;6124668;23;47284;-81
2022/02/07 15:25:43;;;;;;;;;4.33;3.33;;;;;21.67;27.94;102732.59;6121190;23;45451;-80
2022/02/07 15:31:37;;;;;;;;;4.67;4.00;;;;;20.88;29.30;102733.00;6152713;23;45540;-86
2022/02/07 15:34:06;;;;;;;;;4.00;4.00;;;;;21.39;29.42;102727.75;6093834;23;45382;-84
2022/02/07 15:36:32;;;;;;;;;5.67;5.00;;;;;21.50;29.27;102733.78;6199665;22;45210;-82
2022/02/07 15:38:59;;;;;;;;;5.67;4.67;;;;;21.74;28.61;102732.47;6305606;22;45307;-84
2022/02/07 15:41:25;;;;;;;;;3.00;3.00;;;;;21.35;28.55;102724.16;6279160;22;45538;-83
2022/02/07 15:43:50;;;;;;;;;3.00;2.67;;;;;20.76;28.63;102722.44;6279575;22;47327;-82
2022/02/07 15:46:15;;;;;;;;;5.33;3.00;;;;;20.22;29.51;102734.72;6278905;22;45671;-84
2022/02/07 15:48:49;;;;;;;;;3.67;3.67;;;;;19.57;29.94;102715.78;6308876;22;45347;-84
2022/02/07 15:52:00;;;;;;;;;;;;;;;;;;;;;
2022/02/07 15:54:28;;;;;;;;;3.33;3.33;;;;;18.43;30.55;102734.34;6307285;22;74960;-82
2022/02/07 16:57:31;;;;;;;;;4.33;4.00;;;;;12.82;40.39;102738.00;6255016;22;46934;-86
2022/02/07 17:00:09;;;;;;;;;6.00;4.00;;;;;12.67;40.45;102743.88;6306800;22;45251;-90
2022/02/07 17:17:01;;;;;;;;;2.75;2.00;;;;;12.10;42.57;102750.59;6308133;22;45456;-90
2022/02/07 17:43:58;;;;;;;;;5.00;5.00;;;;;11.46;44.90;102761.38;5954212;23;44806;-91
2022/02/07 17:51:15;;;;;;;;;;;;;;;;;;;;;
2022/02/07 17:54:03;;;;;;;;;;;;;;;;;;;;;
2022/02/07 18:07:44;;;;;;;;;;;;;;;;;;;;;
2022/02/07 21:44:32;;;;;;;;;;;;;;;;;;;;;
